sensor_id;sensor_type;location;lat;lon;timestamp;temperature;humidity
25949;DHT22;13961;51.178;4.448;2024-02-23T00:01:44;6.10;99.90
25949;DHT22;13961;51.178;4.448;2024-02-23T00:04:10;6.20;99.90
25949;DHT22;13961;51.178;4.448;2024-02-23T00:06:35;6.10;99.90
25949;DHT22;13961;51.178;4.448;2024-02-23T00:09:01;6.10;99.90
25949;DHT22;13961;51.178;4.448;2024-02-23T00:11:27;6.20;99.90
25949;DHT22;13961;51.178;4.448;2024-02-23T00:13:56;6.20;99.90
25949;DHT22;13961;51.178;4.448;2024-02-23T00:16:21;6.20;99.90
25949;DHT22;13961;51.178;4.448;2024-02-23T00:18:47;6.50;99.90
25949;DHT22;13961;51.178;4.448;2024-02-23T00:21:12;6.20;99.90
25949;DHT22;13961;51.178;4.448;2024-02-23T00:23:38;6.30;99.90
25949;DHT22;13961;51.178;4.448;2024-02-23T00:26:04;6.40;99.90
25949;DHT22;13961;51.178;4.448;2024-02-23T00:28:29;6.30;99.90
25949;DHT22;13961;51.178;4.448;2024-02-23T00:30:55;6.30;99.90
25949;DHT22;13961;51.178;4.448;2024-02-23T00:33:20;6.50;99.90
25949;DHT22;13961;51.178;4.448;2024-02-23T00:35:46;6.40;99.90
25949;DHT22;13961;51.178;4.448;2024-02-23T00:38:12;6.70;99.90
25949;DHT22;13961;51.178;4.448;2024-02-23T00:40:37;6.50;99.90
25949;DHT22;13961;51.178;4.448;2024-02-23T00:43:04;6.70;99.90
25949;DHT22;13961;51.178;4.448;2024-02-23T00:45:29;6.60;99.90
25949;DHT22;13961;51.178;4.448;2024-02-23T00:47:55;6.90;99.90
25949;DHT22;13961;51.178;4.448;2024-02-23T00:50:22;6.90;99.90
25949;DHT22;13961;51.178;4.448;2024-02-23T00:52:51;6.90;99.90
25949;DHT22;13961;51.178;4.448;2024-02-23T00:55:17;7.00;99.90
25949;DHT22;13961;51.178;4.448;2024-02-23T00:57:43;6.50;99.90
25949;DHT22;13961;51.178;4.448;2024-02-23T01:00:09;6.60;99.90
25949;DHT22;13961;51.178;4.448;2024-02-23T01:02:35;6.50;99.90
25949;DHT22;13961;51.178;4.448;2024-02-23T01:05:00;6.60;99.90
25949;DHT22;13961;51.178;4.448;2024-02-23T01:07:27;6.60;99.90
25949;DHT22;13961;51.178;4.448;2024-02-23T01:09:53;6.60;99.90
25949;DHT22;13961;51.178;4.448;2024-02-23T01:12:19;6.60;99.90
25949;DHT22;13961;51.178;4.448;2024-02-23T01:14:44;6.70;99.90
25949;DHT22;13961;51.178;4.448;2024-02-23T01:17:10;6.80;99.90
25949;DHT22;13961;51.178;4.448;2024-02-23T01:19:36;6.60;99.90
25949;DHT22;13961;51.178;4.448;2024-02-23T01:22:01;6.80;99.90
25949;DHT22;13961;51.178;4.448;2024-02-23T01:24:28;6.50;99.90
25949;DHT22;13961;51.178;4.448;2024-02-23T01:26:55;6.30;99.90
25949;DHT22;13961;51.178;4.448;2024-02-23T01:29:21;6.60;99.90
25949;DHT22;13961;51.178;4.448;2024-02-23T01:31:48;6.40;99.90
25949;DHT22;13961;51.178;4.448;2024-02-23T01:34:14;6.40;99.90
25949;DHT22;13961;51.178;4.448;2024-02-23T01:36:40;6.20;99.90
25949;DHT22;13961;51.178;4.448;2024-02-23T01:39:05;6.30;99.90
25949;DHT22;13961;51.178;4.448;2024-02-23T01:41:31;6.00;99.90
25949;DHT22;13961;51.178;4.448;2024-02-23T01:43:57;6.40;99.90
25949;DHT22;13961;51.178;4.448;2024-02-23T01:46:23;6.30;99.90
25949;DHT22;13961;51.178;4.448;2024-02-23T01:48:49;6.30;99.90
25949;DHT22;13961;51.178;4.448;2024-02-23T01:51:15;6.30;99.90
25949;DHT22;13961;51.178;4.448;2024-02-23T01:53:41;6.20;99.90
25949;DHT22;13961;51.178;4.448;2024-02-23T01:56:07;6.10;99.90
25949;DHT22;13961;51.178;4.448;2024-02-23T01:58:34;6.00;99.90
25949;DHT22;13961;51.178;4.448;2024-02-23T02:01:00;5.90;99.90
25949;DHT22;13961;51.178;4.448;2024-02-23T02:03:26;6.00;99.90
25949;DHT22;13961;51.178;4.448;2024-02-23T02:05:53;5.80;99.90
25949;DHT22;13961;51.178;4.448;2024-02-23T02:08:20;5.90;99.90
25949;DHT22;13961;51.178;4.448;2024-02-23T02:10:46;6.00;99.90
25949;DHT22;13961;51.178;4.448;2024-02-23T02:13:12;5.80;99.90
25949;DHT22;13961;51.178;4.448;2024-02-23T02:15:38;6.00;99.90
25949;DHT22;13961;51.178;4.448;2024-02-23T02:18:04;6.00;99.90
25949;DHT22;13961;51.178;4.448;2024-02-23T02:20:32;5.90;99.90
25949;DHT22;13961;51.178;4.448;2024-02-23T02:22:58;6.00;99.90
25949;DHT22;13961;51.178;4.448;2024-02-23T02:25:24;6.10;99.90
25949;DHT22;13961;51.178;4.448;2024-02-23T02:27:50;5.90;99.90
25949;DHT22;13961;51.178;4.448;2024-02-23T02:30:16;6.20;99.90
25949;DHT22;13961;51.178;4.448;2024-02-23T02:32:41;6.00;99.90
25949;DHT22;13961;51.178;4.448;2024-02-23T02:35:07;6.10;99.90
25949;DHT22;13961;51.178;4.448;2024-02-23T02:37:33;6.00;99.90
25949;DHT22;13961;51.178;4.448;2024-02-23T02:39:59;6.00;99.90
25949;DHT22;13961;51.178;4.448;2024-02-23T02:42:25;6.20;99.90
25949;DHT22;13961;51.178;4.448;2024-02-23T02:44:51;6.20;99.90
25949;DHT22;13961;51.178;4.448;2024-02-23T02:47:17;6.20;99.90
25949;DHT22;13961;51.178;4.448;2024-02-23T02:49:42;6.20;99.90
25949;DHT22;13961;51.178;4.448;2024-02-23T02:52:08;6.60;99.90
25949;DHT22;13961;51.178;4.448;2024-02-23T02:54:34;6.30;99.90
25949;DHT22;13961;51.178;4.448;2024-02-23T02:56:59;6.30;99.90
25949;DHT22;13961;51.178;4.448;2024-02-23T02:59:25;6.30;99.90
25949;DHT22;13961;51.178;4.448;2024-02-23T03:01:50;6.40;99.90
25949;DHT22;13961;51.178;4.448;2024-02-23T03:04:16;6.40;99.90
25949;DHT22;13961;51.178;4.448;2024-02-23T03:06:42;6.30;99.90
25949;DHT22;13961;51.178;4.448;2024-02-23T03:09:07;6.30;99.90
25949;DHT22;13961;51.178;4.448;2024-02-23T03:11:33;6.10;99.90
25949;DHT22;13961;51.178;4.448;2024-02-23T03:13:59;6.30;99.90
25949;DHT22;13961;51.178;4.448;2024-02-23T03:16:24;6.10;99.90
25949;DHT22;13961;51.178;4.448;2024-02-23T03:18:54;6.00;99.90
25949;DHT22;13961;51.178;4.448;2024-02-23T03:21:20;6.30;99.90
25949;DHT22;13961;51.178;4.448;2024-02-23T03:23:45;6.10;99.90
25949;DHT22;13961;51.178;4.448;2024-02-23T03:26:11;6.00;99.90
25949;DHT22;13961;51.178;4.448;2024-02-23T03:28:36;6.10;99.90
25949;DHT22;13961;51.178;4.448;2024-02-23T03:31:02;6.10;99.90
25949;DHT22;13961;51.178;4.448;2024-02-23T03:33:28;6.10;99.90
25949;DHT22;13961;51.178;4.448;2024-02-23T03:35:54;6.20;99.90
25949;DHT22;13961;51.178;4.448;2024-02-23T03:38:20;6.10;99.90
25949;DHT22;13961;51.178;4.448;2024-02-23T03:40:46;6.00;99.90
25949;DHT22;13961;51.178;4.448;2024-02-23T03:43:12;6.00;99.90
25949;DHT22;13961;51.178;4.448;2024-02-23T03:45:37;5.90;99.90
25949;DHT22;13961;51.178;4.448;2024-02-23T03:48:04;6.00;99.90
25949;DHT22;13961;51.178;4.448;2024-02-23T03:50:30;6.10;99.90
25949;DHT22;13961;51.178;4.448;2024-02-23T03:52:56;6.20;99.90
25949;DHT22;13961;51.178;4.448;2024-02-23T03:55:22;6.20;99.90
25949;DHT22;13961;51.178;4.448;2024-02-23T03:57:48;6.40;99.90
25949;DHT22;13961;51.178;4.448;2024-02-23T04:00:14;6.40;99.90
25949;DHT22;13961;51.178;4.448;2024-02-23T04:02:40;6.40;99.90
25949;DHT22;13961;51.178;4.448;2024-02-23T04:05:06;6.30;99.90
25949;DHT22;13961;51.178;4.448;2024-02-23T04:07:32;6.30;99.90
25949;DHT22;13961;51.178;4.448;2024-02-23T04:09:57;6.50;99.90
25949;DHT22;13961;51.178;4.448;2024-02-23T04:12:23;6.60;99.90
25949;DHT22;13961;51.178;4.448;2024-02-23T04:14:49;6.50;99.90
25949;DHT22;13961;51.178;4.448;2024-02-23T04:17:15;6.80;99.90
25949;DHT22;13961;51.178;4.448;2024-02-23T04:19:42;6.70;99.90
25949;DHT22;13961;51.178;4.448;2024-02-23T04:22:08;6.60;99.90
25949;DHT22;13961;51.178;4.448;2024-02-23T04:24:37;6.80;99.90
25949;DHT22;13961;51.178;4.448;2024-02-23T04:27:04;6.60;99.90
25949;DHT22;13961;51.178;4.448;2024-02-23T04:29:29;6.70;99.90
25949;DHT22;13961;51.178;4.448;2024-02-23T04:31:55;6.80;99.90
25949;DHT22;13961;51.178;4.448;2024-02-23T04:34:21;6.60;99.90
25949;DHT22;13961;51.178;4.448;2024-02-23T04:36:46;6.60;99.90
25949;DHT22;13961;51.178;4.448;2024-02-23T04:39:12;6.60;99.90
25949;DHT22;13961;51.178;4.448;2024-02-23T04:41:38;6.40;99.90
25949;DHT22;13961;51.178;4.448;2024-02-23T04:44:03;6.60;99.90
25949;DHT22;13961;51.178;4.448;2024-02-23T04:46:30;6.40;99.90
25949;DHT22;13961;51.178;4.448;2024-02-23T04:48:56;6.40;99.90
25949;DHT22;13961;51.178;4.448;2024-02-23T04:51:22;6.60;99.90
25949;DHT22;13961;51.178;4.448;2024-02-23T04:53:50;6.50;99.90
25949;DHT22;13961;51.178;4.448;2024-02-23T04:56:16;6.70;99.90
25949;DHT22;13961;51.178;4.448;2024-02-23T04:58:42;6.80;99.90
25949;DHT22;13961;51.178;4.448;2024-02-23T05:01:08;6.70;99.90
25949;DHT22;13961;51.178;4.448;2024-02-23T05:03:34;6.80;99.90
25949;DHT22;13961;51.178;4.448;2024-02-23T05:06:02;6.80;99.90
25949;DHT22;13961;51.178;4.448;2024-02-23T05:08:27;6.60;99.90
25949;DHT22;13961;51.178;4.448;2024-02-23T05:10:53;6.60;99.90
25949;DHT22;13961;51.178;4.448;2024-02-23T05:13:19;6.40;99.90
25949;DHT22;13961;51.178;4.448;2024-02-23T05:15:44;6.50;99.90
25949;DHT22;13961;51.178;4.448;2024-02-23T05:18:10;6.50;99.90
25949;DHT22;13961;51.178;4.448;2024-02-23T05:20:36;6.60;99.90
25949;DHT22;13961;51.178;4.448;2024-02-23T05:23:01;6.70;99.90
25949;DHT22;13961;51.178;4.448;2024-02-23T05:25:27;6.60;99.90
25949;DHT22;13961;51.178;4.448;2024-02-23T05:27:53;6.70;99.90
25949;DHT22;13961;51.178;4.448;2024-02-23T05:30:19;6.80;99.90
25949;DHT22;13961;51.178;4.448;2024-02-23T05:32:44;6.70;99.90
25949;DHT22;13961;51.178;4.448;2024-02-23T05:35:10;6.50;99.90
25949;DHT22;13961;51.178;4.448;2024-02-23T05:37:36;6.60;99.90
25949;DHT22;13961;51.178;4.448;2024-02-23T05:40:03;6.70;99.90
25949;DHT22;13961;51.178;4.448;2024-02-23T05:42:36;6.60;99.90
25949;DHT22;13961;51.178;4.448;2024-02-23T05:45:01;6.70;99.90
25949;DHT22;13961;51.178;4.448;2024-02-23T05:47:30;6.60;99.90
25949;DHT22;13961;51.178;4.448;2024-02-23T05:49:55;6.70;99.90
25949;DHT22;13961;51.178;4.448;2024-02-23T05:52:21;6.60;99.90
25949;DHT22;13961;51.178;4.448;2024-02-23T05:54:47;6.60;99.90
25949;DHT22;13961;51.178;4.448;2024-02-23T05:57:12;6.60;99.90
25949;DHT22;13961;51.178;4.448;2024-02-23T05:59:38;6.60;99.90
25949;DHT22;13961;51.178;4.448;2024-02-23T06:02:04;6.60;99.90
25949;DHT22;13961;51.178;4.448;2024-02-23T06:04:29;6.60;99.90
25949;DHT22;13961;51.178;4.448;2024-02-23T06:06:55;6.50;99.90
25949;DHT22;13961;51.178;4.448;2024-02-23T06:09:21;6.60;99.90
25949;DHT22;13961;51.178;4.448;2024-02-23T06:11:46;6.60;99.90
25949;DHT22;13961;51.178;4.448;2024-02-23T06:14:12;6.80;99.90
25949;DHT22;13961;51.178;4.448;2024-02-23T06:16:38;6.60;99.90
25949;DHT22;13961;51.178;4.448;2024-02-23T06:19:04;6.70;99.90
25949;DHT22;13961;51.178;4.448;2024-02-23T06:21:29;6.80;99.90
25949;DHT22;13961;51.178;4.448;2024-02-23T06:23:55;6.60;99.90
25949;DHT22;13961;51.178;4.448;2024-02-23T06:26:21;6.60;99.90
25949;DHT22;13961;51.178;4.448;2024-02-23T06:28:47;6.80;99.90
25949;DHT22;13961;51.178;4.448;2024-02-23T06:31:14;6.70;99.90
25949;DHT22;13961;51.178;4.448;2024-02-23T06:33:40;6.60;99.90
25949;DHT22;13961;51.178;4.448;2024-02-23T06:36:06;6.70;99.90
25949;DHT22;13961;51.178;4.448;2024-02-23T06:38:33;6.60;99.90
25949;DHT22;13961;51.178;4.448;2024-02-23T06:40:59;6.60;99.90
25949;DHT22;13961;51.178;4.448;2024-02-23T06:43:25;6.60;99.90
25949;DHT22;13961;51.178;4.448;2024-02-23T06:45:51;6.60;99.90
25949;DHT22;13961;51.178;4.448;2024-02-23T06:48:17;6.70;99.90
25949;DHT22;13961;51.178;4.448;2024-02-23T06:50:42;6.80;99.90
25949;DHT22;13961;51.178;4.448;2024-02-23T06:53:08;6.90;99.90
25949;DHT22;13961;51.178;4.448;2024-02-23T06:55:37;6.80;99.90
25949;DHT22;13961;51.178;4.448;2024-02-23T06:58:03;7.00;99.90
25949;DHT22;13961;51.178;4.448;2024-02-23T07:00:30;6.80;99.90
25949;DHT22;13961;51.178;4.448;2024-02-23T07:02:56;6.80;99.90
25949;DHT22;13961;51.178;4.448;2024-02-23T07:05:24;6.90;99.90
25949;DHT22;13961;51.178;4.448;2024-02-23T07:07:50;6.80;99.90
25949;DHT22;13961;51.178;4.448;2024-02-23T07:10:15;7.00;99.90
25949;DHT22;13961;51.178;4.448;2024-02-23T07:12:43;6.90;99.90
25949;DHT22;13961;51.178;4.448;2024-02-23T07:15:09;7.00;99.90
25949;DHT22;13961;51.178;4.448;2024-02-23T07:17:35;6.90;99.90
25949;DHT22;13961;51.178;4.448;2024-02-23T07:20:01;6.80;99.90
25949;DHT22;13961;51.178;4.448;2024-02-23T07:22:31;6.80;99.90
25949;DHT22;13961;51.178;4.448;2024-02-23T07:24:57;6.80;99.90
25949;DHT22;13961;51.178;4.448;2024-02-23T07:27:23;6.90;99.90
25949;DHT22;13961;51.178;4.448;2024-02-23T07:29:48;6.90;99.90
25949;DHT22;13961;51.178;4.448;2024-02-23T07:32:14;6.90;99.90
25949;DHT22;13961;51.178;4.448;2024-02-23T07:34:40;6.90;99.90
25949;DHT22;13961;51.178;4.448;2024-02-23T07:37:05;6.90;99.90
25949;DHT22;13961;51.178;4.448;2024-02-23T07:39:31;6.90;99.90
25949;DHT22;13961;51.178;4.448;2024-02-23T07:41:57;7.20;99.90
25949;DHT22;13961;51.178;4.448;2024-02-23T07:44:22;7.10;99.90
25949;DHT22;13961;51.178;4.448;2024-02-23T07:46:48;7.20;99.90
25949;DHT22;13961;51.178;4.448;2024-02-23T07:49:14;7.40;99.90
25949;DHT22;13961;51.178;4.448;2024-02-23T07:51:39;7.40;99.90
25949;DHT22;13961;51.178;4.448;2024-02-23T07:54:05;7.50;99.90
25949;DHT22;13961;51.178;4.448;2024-02-23T07:56:31;7.70;99.90
25949;DHT22;13961;51.178;4.448;2024-02-23T07:58:56;7.70;99.90
25949;DHT22;13961;51.178;4.448;2024-02-23T08:01:22;7.60;99.90
25949;DHT22;13961;51.178;4.448;2024-02-23T08:03:48;7.60;99.90
25949;DHT22;13961;51.178;4.448;2024-02-23T08:06:14;7.70;99.90
25949;DHT22;13961;51.178;4.448;2024-02-23T08:08:39;7.60;99.90
25949;DHT22;13961;51.178;4.448;2024-02-23T08:11:05;7.60;99.90
25949;DHT22;13961;51.178;4.448;2024-02-23T08:13:31;7.50;99.90
25949;DHT22;13961;51.178;4.448;2024-02-23T08:15:57;7.60;99.90
25949;DHT22;13961;51.178;4.448;2024-02-23T08:18:23;7.50;99.90
25949;DHT22;13961;51.178;4.448;2024-02-23T08:20:50;7.50;99.90
25949;DHT22;13961;51.178;4.448;2024-02-23T08:23:17;7.50;99.90
25949;DHT22;13961;51.178;4.448;2024-02-23T08:25:44;7.30;99.90
25949;DHT22;13961;51.178;4.448;2024-02-23T08:28:09;7.10;99.90
25949;DHT22;13961;51.178;4.448;2024-02-23T08:30:35;7.00;99.90
25949;DHT22;13961;51.178;4.448;2024-02-23T08:33:01;7.00;99.90
25949;DHT22;13961;51.178;4.448;2024-02-23T08:35:26;7.00;99.90
25949;DHT22;13961;51.178;4.448;2024-02-23T08:37:52;7.00;99.90
25949;DHT22;13961;51.178;4.448;2024-02-23T08:40:18;7.20;99.90
25949;DHT22;13961;51.178;4.448;2024-02-23T08:42:43;7.10;99.90
25949;DHT22;13961;51.178;4.448;2024-02-23T08:45:09;7.00;99.90
25949;DHT22;13961;51.178;4.448;2024-02-23T08:47:37;7.00;99.90
25949;DHT22;13961;51.178;4.448;2024-02-23T08:50:03;7.00;99.90
25949;DHT22;13961;51.178;4.448;2024-02-23T08:52:29;7.00;99.90
25949;DHT22;13961;51.178;4.448;2024-02-23T08:54:55;7.10;99.90
25949;DHT22;13961;51.178;4.448;2024-02-23T08:57:21;6.90;99.90
25949;DHT22;13961;51.178;4.448;2024-02-23T08:59:51;6.90;99.90
25949;DHT22;13961;51.178;4.448;2024-02-23T09:02:17;7.00;99.90
25949;DHT22;13961;51.178;4.448;2024-02-23T09:04:44;7.10;99.90
25949;DHT22;13961;51.178;4.448;2024-02-23T09:07:12;7.30;99.90
25949;DHT22;13961;51.178;4.448;2024-02-23T09:09:38;7.40;99.90
25949;DHT22;13961;51.178;4.448;2024-02-23T09:12:04;7.30;99.90
25949;DHT22;13961;51.178;4.448;2024-02-23T09:14:32;7.30;99.90
25949;DHT22;13961;51.178;4.448;2024-02-23T09:16:58;7.40;99.90
25949;DHT22;13961;51.178;4.448;2024-02-23T09:19:24;7.10;99.90
25949;DHT22;13961;51.178;4.448;2024-02-23T09:21:49;7.20;99.90
25949;DHT22;13961;51.178;4.448;2024-02-23T09:24:15;7.20;99.90
25949;DHT22;13961;51.178;4.448;2024-02-23T09:26:41;7.30;99.90
25949;DHT22;13961;51.178;4.448;2024-02-23T09:29:06;7.50;99.90
25949;DHT22;13961;51.178;4.448;2024-02-23T09:31:32;7.40;99.90
25949;DHT22;13961;51.178;4.448;2024-02-23T09:33:58;7.40;99.90
25949;DHT22;13961;51.178;4.448;2024-02-23T09:36:24;7.50;99.90
25949;DHT22;13961;51.178;4.448;2024-02-23T09:38:50;7.50;99.90
25949;DHT22;13961;51.178;4.448;2024-02-23T09:41:25;7.60;99.90
25949;DHT22;13961;51.178;4.448;2024-02-23T09:43:51;7.70;99.90
25949;DHT22;13961;51.178;4.448;2024-02-23T09:46:18;8.10;99.90
25949;DHT22;13961;51.178;4.448;2024-02-23T09:48:44;7.90;99.90
25949;DHT22;13961;51.178;4.448;2024-02-23T09:51:12;8.10;99.90
25949;DHT22;13961;51.178;4.448;2024-02-23T09:53:38;8.10;99.90
25949;DHT22;13961;51.178;4.448;2024-02-23T09:56:05;8.10;99.90
25949;DHT22;13961;51.178;4.448;2024-02-23T09:58:35;8.40;99.90
25949;DHT22;13961;51.178;4.448;2024-02-23T10:01:02;8.40;99.90
25949;DHT22;13961;51.178;4.448;2024-02-23T10:03:28;8.50;99.90
25949;DHT22;13961;51.178;4.448;2024-02-23T10:05:59;8.60;99.90
25949;DHT22;13961;51.178;4.448;2024-02-23T10:08:27;8.50;99.90
25949;DHT22;13961;51.178;4.448;2024-02-23T10:10:54;8.40;99.90
25949;DHT22;13961;51.178;4.448;2024-02-23T10:13:20;8.20;99.90
25949;DHT22;13961;51.178;4.448;2024-02-23T10:15:50;8.40;99.90
25949;DHT22;13961;51.178;4.448;2024-02-23T10:18:16;8.40;99.90
25949;DHT22;13961;51.178;4.448;2024-02-23T10:20:42;8.30;99.90
25949;DHT22;13961;51.178;4.448;2024-02-23T10:23:08;8.40;99.90
25949;DHT22;13961;51.178;4.448;2024-02-23T10:25:35;8.40;99.90
25949;DHT22;13961;51.178;4.448;2024-02-23T10:28:07;8.50;99.90
25949;DHT22;13961;51.178;4.448;2024-02-23T10:30:36;8.80;99.90
25949;DHT22;13961;51.178;4.448;2024-02-23T10:33:03;8.50;99.90
25949;DHT22;13961;51.178;4.448;2024-02-23T10:35:32;8.40;99.90
25949;DHT22;13961;51.178;4.448;2024-02-23T10:38:01;8.40;99.90
25949;DHT22;13961;51.178;4.448;2024-02-23T10:40:27;8.70;99.90
25949;DHT22;13961;51.178;4.448;2024-02-23T10:42:57;8.70;99.90
25949;DHT22;13961;51.178;4.448;2024-02-23T10:45:25;8.80;99.90
25949;DHT22;13961;51.178;4.448;2024-02-23T10:47:51;8.90;99.90
25949;DHT22;13961;51.178;4.448;2024-02-23T10:50:18;8.50;99.90
25949;DHT22;13961;51.178;4.448;2024-02-23T10:52:45;8.60;99.90
25949;DHT22;13961;51.178;4.448;2024-02-23T10:55:14;8.90;99.90
25949;DHT22;13961;51.178;4.448;2024-02-23T10:57:40;8.80;99.90
25949;DHT22;13961;51.178;4.448;2024-02-23T11:00:08;8.80;99.90
25949;DHT22;13961;51.178;4.448;2024-02-23T11:02:41;8.80;99.90
25949;DHT22;13961;51.178;4.448;2024-02-23T11:05:09;8.90;99.90
25949;DHT22;13961;51.178;4.448;2024-02-23T11:07:40;9.00;99.90
25949;DHT22;13961;51.178;4.448;2024-02-23T11:10:06;9.00;99.90
25949;DHT22;13961;51.178;4.448;2024-02-23T11:12:34;9.10;99.90
25949;DHT22;13961;51.178;4.448;2024-02-23T11:15:01;9.10;99.90
25949;DHT22;13961;51.178;4.448;2024-02-23T11:17:29;9.10;99.90
25949;DHT22;13961;51.178;4.448;2024-02-23T11:19:56;9.30;99.90
25949;DHT22;13961;51.178;4.448;2024-02-23T11:22:26;9.30;99.90
25949;DHT22;13961;51.178;4.448;2024-02-23T11:24:52;9.50;99.90
25949;DHT22;13961;51.178;4.448;2024-02-23T11:27:17;9.80;99.90
25949;DHT22;13961;51.178;4.448;2024-02-23T11:29:48;9.80;99.90
25949;DHT22;13961;51.178;4.448;2024-02-23T11:32:42;10.10;99.90
25949;DHT22;13961;51.178;4.448;2024-02-23T11:35:10;10.20;99.90
25949;DHT22;13961;51.178;4.448;2024-02-23T11:37:52;10.50;99.90
25949;DHT22;13961;51.178;4.448;2024-02-23T11:40:22;10.90;99.90
25949;DHT22;13961;51.178;4.448;2024-02-23T11:42:50;10.80;99.90
25949;DHT22;13961;51.178;4.448;2024-02-23T11:45:16;10.90;99.90
25949;DHT22;13961;51.178;4.448;2024-02-23T11:47:41;10.80;99.90
25949;DHT22;13961;51.178;4.448;2024-02-23T11:50:10;10.60;99.90
25949;DHT22;13961;51.178;4.448;2024-02-23T11:52:39;10.60;99.90
25949;DHT22;13961;51.178;4.448;2024-02-23T11:55:05;10.50;99.90
25949;DHT22;13961;51.178;4.448;2024-02-23T11:57:33;10.40;99.90
25949;DHT22;13961;51.178;4.448;2024-02-23T12:00:04;10.20;99.90
25949;DHT22;13961;51.178;4.448;2024-02-23T12:02:32;10.10;99.90
25949;DHT22;13961;51.178;4.448;2024-02-23T12:04:58;9.80;99.90
25949;DHT22;13961;51.178;4.448;2024-02-23T12:07:23;9.80;99.90
25949;DHT22;13961;51.178;4.448;2024-02-23T12:09:52;9.80;99.90
25949;DHT22;13961;51.178;4.448;2024-02-23T12:12:17;10.00;99.90
25949;DHT22;13961;51.178;4.448;2024-02-23T12:14:44;10.20;99.90
25949;DHT22;13961;51.178;4.448;2024-02-23T12:17:09;9.90;99.90
25949;DHT22;13961;51.178;4.448;2024-02-23T12:19:39;9.90;99.90
25949;DHT22;13961;51.178;4.448;2024-02-23T12:22:05;9.90;99.90
25949;DHT22;13961;51.178;4.448;2024-02-23T12:24:31;10.00;99.90
25949;DHT22;13961;51.178;4.448;2024-02-23T12:26:56;10.00;99.90
25949;DHT22;13961;51.178;4.448;2024-02-23T12:29:23;10.00;99.90
25949;DHT22;13961;51.178;4.448;2024-02-23T12:31:49;10.10;99.90
25949;DHT22;13961;51.178;4.448;2024-02-23T12:34:14;10.20;99.90
25949;DHT22;13961;51.178;4.448;2024-02-23T12:36:40;9.90;99.90
25949;DHT22;13961;51.178;4.448;2024-02-23T12:39:06;9.80;99.90
25949;DHT22;13961;51.178;4.448;2024-02-23T12:41:32;9.80;99.90
25949;DHT22;13961;51.178;4.448;2024-02-23T12:43:58;10.00;99.90
25949;DHT22;13961;51.178;4.448;2024-02-23T12:46:24;9.90;99.90
25949;DHT22;13961;51.178;4.448;2024-02-23T12:48:50;10.00;99.90
25949;DHT22;13961;51.178;4.448;2024-02-23T12:51:16;10.00;99.90
25949;DHT22;13961;51.178;4.448;2024-02-23T12:53:42;10.20;99.90
25949;DHT22;13961;51.178;4.448;2024-02-23T12:56:09;10.20;99.90
25949;DHT22;13961;51.178;4.448;2024-02-23T12:58:39;10.00;99.90
25949;DHT22;13961;51.178;4.448;2024-02-23T13:01:05;9.90;99.90
25949;DHT22;13961;51.178;4.448;2024-02-23T13:03:33;9.80;99.90
25949;DHT22;13961;51.178;4.448;2024-02-23T13:05:59;9.90;99.90
25949;DHT22;13961;51.178;4.448;2024-02-23T13:08:25;9.90;99.90
25949;DHT22;13961;51.178;4.448;2024-02-23T13:10:52;9.90;99.90
25949;DHT22;13961;51.178;4.448;2024-02-23T13:13:19;10.00;99.90
25949;DHT22;13961;51.178;4.448;2024-02-23T13:15:46;10.00;99.90
25949;DHT22;13961;51.178;4.448;2024-02-23T13:18:12;9.90;99.90
25949;DHT22;13961;51.178;4.448;2024-02-23T13:20:38;10.00;99.90
25949;DHT22;13961;51.178;4.448;2024-02-23T13:23:04;10.00;99.90
25949;DHT22;13961;51.178;4.448;2024-02-23T13:25:32;10.00;99.90
25949;DHT22;13961;51.178;4.448;2024-02-23T13:27:57;10.10;99.90
25949;DHT22;13961;51.178;4.448;2024-02-23T13:30:23;10.10;99.90
25949;DHT22;13961;51.178;4.448;2024-02-23T13:32:49;10.00;99.90
25949;DHT22;13961;51.178;4.448;2024-02-23T13:35:14;9.90;99.90
25949;DHT22;13961;51.178;4.448;2024-02-23T13:37:41;9.70;99.90
25949;DHT22;13961;51.178;4.448;2024-02-23T13:40:08;9.60;99.90
25949;DHT22;13961;51.178;4.448;2024-02-23T13:42:35;9.70;99.90
25949;DHT22;13961;51.178;4.448;2024-02-23T13:45:00;10.00;99.90
25949;DHT22;13961;51.178;4.448;2024-02-23T13:47:26;10.00;99.90
25949;DHT22;13961;51.178;4.448;2024-02-23T13:49:52;10.20;99.90
25949;DHT22;13961;51.178;4.448;2024-02-23T13:52:17;10.10;99.90
25949;DHT22;13961;51.178;4.448;2024-02-23T13:54:43;9.80;99.90
25949;DHT22;13961;51.178;4.448;2024-02-23T13:57:08;9.90;99.90
25949;DHT22;13961;51.178;4.448;2024-02-23T13:59:34;10.10;99.90
25949;DHT22;13961;51.178;4.448;2024-02-23T14:02:00;9.90;99.90
25949;DHT22;13961;51.178;4.448;2024-02-23T14:04:26;10.20;99.90
25949;DHT22;13961;51.178;4.448;2024-02-23T14:06:51;10.20;99.90
25949;DHT22;13961;51.178;4.448;2024-02-23T14:09:17;10.20;99.90
25949;DHT22;13961;51.178;4.448;2024-02-23T14:11:43;10.30;99.90
25949;DHT22;13961;51.178;4.448;2024-02-23T14:14:10;10.30;99.90
25949;DHT22;13961;51.178;4.448;2024-02-23T14:16:36;10.40;99.90
25949;DHT22;13961;51.178;4.448;2024-02-23T14:19:01;10.30;99.90
25949;DHT22;13961;51.178;4.448;2024-02-23T14:21:27;10.30;99.90
25949;DHT22;13961;51.178;4.448;2024-02-23T14:23:53;10.60;99.90
25949;DHT22;13961;51.178;4.448;2024-02-23T14:26:18;10.50;99.90
25949;DHT22;13961;51.178;4.448;2024-02-23T14:28:44;10.70;99.90
25949;DHT22;13961;51.178;4.448;2024-02-23T14:31:09;10.60;99.90
25949;DHT22;13961;51.178;4.448;2024-02-23T14:33:35;10.60;99.90
25949;DHT22;13961;51.178;4.448;2024-02-23T14:36:01;10.60;99.90
25949;DHT22;13961;51.178;4.448;2024-02-23T14:38:26;10.40;99.90
25949;DHT22;13961;51.178;4.448;2024-02-23T14:40:52;10.30;99.90
25949;DHT22;13961;51.178;4.448;2024-02-23T14:43:18;10.30;99.90
25949;DHT22;13961;51.178;4.448;2024-02-23T14:45:44;10.60;99.90
25949;DHT22;13961;51.178;4.448;2024-02-23T14:48:09;10.40;99.90
25949;DHT22;13961;51.178;4.448;2024-02-23T14:50:35;10.50;99.90
25949;DHT22;13961;51.178;4.448;2024-02-23T14:53:01;10.50;99.90
25949;DHT22;13961;51.178;4.448;2024-02-23T14:55:26;10.50;99.90
25949;DHT22;13961;51.178;4.448;2024-02-23T14:57:52;10.60;99.90
25949;DHT22;13961;51.178;4.448;2024-02-23T15:00:18;10.70;99.90
25949;DHT22;13961;51.178;4.448;2024-02-23T15:02:43;10.70;99.90
25949;DHT22;13961;51.178;4.448;2024-02-23T15:05:09;10.50;99.90
25949;DHT22;13961;51.178;4.448;2024-02-23T15:07:35;10.60;99.90
25949;DHT22;13961;51.178;4.448;2024-02-23T15:10:02;10.30;99.90
25949;DHT22;13961;51.178;4.448;2024-02-23T15:12:34;10.20;99.90
25949;DHT22;13961;51.178;4.448;2024-02-23T15:14:59;10.20;99.90
25949;DHT22;13961;51.178;4.448;2024-02-23T15:17:25;10.50;99.90
25949;DHT22;13961;51.178;4.448;2024-02-23T15:19:51;10.80;99.90
25949;DHT22;13961;51.178;4.448;2024-02-23T15:22:17;10.60;99.90
25949;DHT22;13961;51.178;4.448;2024-02-23T15:24:44;10.60;99.90
25949;DHT22;13961;51.178;4.448;2024-02-23T15:27:15;10.50;99.90
25949;DHT22;13961;51.178;4.448;2024-02-23T15:29:41;10.50;99.90
25949;DHT22;13961;51.178;4.448;2024-02-23T15:32:07;10.50;99.90
25949;DHT22;13961;51.178;4.448;2024-02-23T15:34:32;10.60;99.90
25949;DHT22;13961;51.178;4.448;2024-02-23T15:36:58;10.40;99.90